sensor_id;sensor_type;location;lat;lon;timestamp;pressure;altitude;pressure_sealevel;temperature;humidity
61628;BME280;55193;52.102;5.242;2022-10-28T00:01:52;101722.0;;;16.52;100.0
61628;BME280;55193;52.102;5.242;2022-10-28T00:03:28;101721.0;;;16.46;100.0
61628;BME280;55193;52.102;5.242;2022-10-28T00:05:05;101719.0;;;16.45;100.0
61628;BME280;55193;52.102;5.242;2022-10-28T00:08:18;101720.0;;;16.45;100.0
61628;BME280;55193;52.102;5.242;2022-10-28T00:09:54;101728.0;;;16.38;100.0
61628;BME280;55193;52.102;5.242;2022-10-28T00:11:31;101724.0;;;16.31;100.0
61628;BME280;55193;52.102;5.242;2022-10-28T00:13:09;101726.0;;;16.36;100.0
61628;BME280;55193;52.102;5.242;2022-10-28T00:16:23;101720.0;;;16.38;100.0
61628;BME280;55193;52.102;5.242;2022-10-28T00:18:02;101708.0;;;16.34;100.0
61628;BME280;55193;52.102;5.242;2022-10-28T00:19:38;101702.0;;;16.37;100.0
61628;BME280;55193;52.102;5.242;2022-10-28T00:22:55;101706.0;;;16.36;100.0
61628;BME280;55193;52.102;5.242;2022-10-28T00:24:31;101703.0;;;16.46;100.0
61628;BME280;55193;52.102;5.242;2022-10-28T00:26:09;101696.0;;;16.47;100.0
61628;BME280;55193;52.102;5.242;2022-10-28T00:29:23;101691.0;;;16.47;100.0
61628;BME280;55193;52.102;5.242;2022-10-28T00:31:04;101697.0;;;16.47;100.0
61628;BME280;55193;52.102;5.242;2022-10-28T00:32:41;101691.0;;;16.45;100.0
61628;BME280;55193;52.102;5.242;2022-10-28T00:34:19;101691.0;;;16.5;100.0
61628;BME280;55193;52.102;5.242;2022-10-28T00:37:31;101689.0;;;16.57;100.0
61628;BME280;55193;52.102;5.242;2022-10-28T00:39:10;101688.0;;;16.61;100.0
61628;BME280;55193;52.102;5.242;2022-10-28T00:40:47;101688.0;;;16.59;100.0
61628;BME280;55193;52.102;5.242;2022-10-28T00:44:36;101693.0;;;16.63;100.0
61628;BME280;55193;52.102;5.242;2022-10-28T00:46:19;101692.0;;;16.64;100.0
61628;BME280;55193;52.102;5.242;2022-10-28T00:48:01;101688.0;;;16.7;100.0
61628;BME280;55193;52.102;5.242;2022-10-28T00:49:40;101684.0;;;16.75;100.0
61628;BME280;55193;52.102;5.242;2022-10-28T00:51:20;101680.0;;;16.75;100.0
61628;BME280;55193;52.102;5.242;2022-10-28T00:53:00;101680.0;;;16.77;100.0
61628;BME280;55193;52.102;5.242;2022-10-28T00:56:19;101672.0;;;16.75;100.0
61628;BME280;55193;52.102;5.242;2022-10-28T00:57:58;101671.0;;;16.73;100.0
61628;BME280;55193;52.102;5.242;2022-10-28T00:59:38;101671.0;;;16.73;100.0
61628;BME280;55193;52.102;5.242;2022-10-28T01:01:18;101673.0;;;16.71;100.0
61628;BME280;55193;52.102;5.242;2022-10-28T01:04:31;101670.0;;;16.7;100.0
61628;BME280;55193;52.102;5.242;2022-10-28T01:06:09;101666.0;;;16.68;100.0
61628;BME280;55193;52.102;5.242;2022-10-28T01:07:46;101666.0;;;16.75;100.0
61628;BME280;55193;52.102;5.242;2022-10-28T01:11:11;101671.0;;;16.68;100.0
61628;BME280;55193;52.102;5.242;2022-10-28T01:13:32;101669.0;;;16.59;100.0
61628;BME280;55193;52.102;5.242;2022-10-28T01:15:18;101667.0;;;16.61;100.0
61628;BME280;55193;52.102;5.242;2022-10-28T01:17:23;101660.0;;;16.55;100.0
61628;BME280;55193;52.102;5.242;2022-10-28T01:19:17;101666.0;;;16.55;100.0
61628;BME280;55193;52.102;5.242;2022-10-28T01:22:19;101664.0;;;16.55;100.0
61628;BME280;55193;52.102;5.242;2022-10-28T01:24:11;101663.0;;;16.52;100.0
61628;BME280;55193;52.102;5.242;2022-10-28T01:26:02;101664.0;;;16.52;100.0
61628;BME280;55193;52.102;5.242;2022-10-28T01:29:34;101663.0;;;16.52;100.0
61628;BME280;55193;52.102;5.242;2022-10-28T01:31:52;101663.0;;;16.45;100.0
61628;BME280;55193;52.102;5.242;2022-10-28T01:33:34;101660.0;;;16.4;100.0
61628;BME280;55193;52.102;5.242;2022-10-28T01:35:18;101659.0;;;16.37;100.0
61628;BME280;55193;52.102;5.242;2022-10-28T01:37:01;101659.0;;;16.36;100.0
61628;BME280;55193;52.102;5.242;2022-10-28T01:40:32;101656.0;;;16.41;100.0
61628;BME280;55193;52.102;5.242;2022-10-28T01:42:21;101651.0;;;16.34;100.0
61628;BME280;55193;52.102;5.242;2022-10-28T01:44:05;101653.0;;;16.34;100.0
61628;BME280;55193;52.102;5.242;2022-10-28T01:45:50;101652.0;;;16.4;100.0
61628;BME280;55193;52.102;5.242;2022-10-28T01:47:32;101650.0;;;16.27;100.0
61628;BME280;55193;52.102;5.242;2022-10-28T01:50:56;101645.0;;;16.2;100.0
61628;BME280;55193;52.102;5.242;2022-10-28T01:52:39;101644.0;;;16.16;100.0
61628;BME280;55193;52.102;5.242;2022-10-28T01:54:18;101646.0;;;16.18;100.0
61628;BME280;55193;52.102;5.242;2022-10-28T01:56:02;101645.0;;;16.13;100.0
61628;BME280;55193;52.102;5.242;2022-10-28T01:59:20;101638.0;;;16.16;100.0
61628;BME280;55193;52.102;5.242;2022-10-28T02:01:04;101635.0;;;16.05;100.0
61628;BME280;55193;52.102;5.242;2022-10-28T02:02:42;101633.0;;;16.11;100.0
61628;BME280;55193;52.102;5.242;2022-10-28T02:04:19;101630.0;;;16.09;100.0
61628;BME280;55193;52.102;5.242;2022-10-28T02:07:36;101627.0;;;16.05;100.0
61628;BME280;55193;52.102;5.242;2022-10-28T02:09:20;101622.0;;;15.93;100.0
61628;BME280;55193;52.102;5.242;2022-10-28T02:11:28;101621.0;;;15.99;100.0
61628;BME280;55193;52.102;5.242;2022-10-28T02:13:15;101626.0;;;15.97;100.0
61628;BME280;55193;52.102;5.242;2022-10-28T02:15:05;101626.0;;;16.03;100.0
61628;BME280;55193;52.102;5.242;2022-10-28T02:16:53;101628.0;;;15.93;100.0
61628;BME280;55193;52.102;5.242;2022-10-28T02:20:31;101631.0;;;15.87;100.0
61628;BME280;55193;52.102;5.242;2022-10-28T02:22:14;101622.0;;;15.89;100.0
61628;BME280;55193;52.102;5.242;2022-10-28T02:23:56;101627.0;;;15.82;100.0
61628;BME280;55193;52.102;5.242;2022-10-28T02:25:42;101622.0;;;15.84;100.0
61628;BME280;55193;52.102;5.242;2022-10-28T02:27:28;101623.0;;;15.85;100.0
61628;BME280;55193;52.102;5.242;2022-10-28T02:30:58;101627.0;;;15.76;100.0
61628;BME280;55193;52.102;5.242;2022-10-28T02:32:41;101626.0;;;15.79;100.0
61628;BME280;55193;52.102;5.242;2022-10-28T02:34:22;101622.0;;;15.68;100.0
61628;BME280;55193;52.102;5.242;2022-10-28T02:36:04;101616.0;;;15.63;100.0
61628;BME280;55193;52.102;5.242;2022-10-28T02:37:44;101619.0;;;15.77;100.0
61628;BME280;55193;52.102;5.242;2022-10-28T02:41:14;101624.0;;;15.76;100.0
61628;BME280;55193;52.102;5.242;2022-10-28T02:42:53;101626.0;;;15.77;100.0
61628;BME280;55193;52.102;5.242;2022-10-28T02:44:34;101617.0;;;15.8;100.0
61628;BME280;55193;52.102;5.242;2022-10-28T02:46:15;101621.0;;;15.78;100.0
61628;BME280;55193;52.102;5.242;2022-10-28T02:49:35;101623.0;;;15.76;100.0
61628;BME280;55193;52.102;5.242;2022-10-28T02:51:16;101622.0;;;15.69;100.0
61628;BME280;55193;52.102;5.242;2022-10-28T02:52:57;101622.0;;;15.68;100.0
61628;BME280;55193;52.102;5.242;2022-10-28T02:54:38;101626.0;;;15.78;100.0
61628;BME280;55193;52.102;5.242;2022-10-28T02:57:56;101621.0;;;15.75;100.0
61628;BME280;55193;52.102;5.242;2022-10-28T02:59:33;101615.0;;;15.83;100.0
61628;BME280;55193;52.102;5.242;2022-10-28T03:01:09;101610.0;;;15.91;100.0
61628;BME280;55193;52.102;5.242;2022-10-28T03:02:45;101603.0;;;15.9;100.0
61628;BME280;55193;52.102;5.242;2022-10-28T03:05:57;101607.0;;;15.84;100.0
61628;BME280;55193;52.102;5.242;2022-10-28T03:07:33;101608.0;;;15.89;100.0
61628;BME280;55193;52.102;5.242;2022-10-28T03:09:09;101606.0;;;15.93;100.0
61628;BME280;55193;52.102;5.242;2022-10-28T03:12:22;101605.0;;;15.93;100.0
61628;BME280;55193;52.102;5.242;2022-10-28T03:13:58;101609.0;;;15.97;100.0
61628;BME280;55193;52.102;5.242;2022-10-28T03:15:34;101611.0;;;15.97;100.0
61628;BME280;55193;52.102;5.242;2022-10-28T03:18:46;101613.0;;;16.05;100.0
61628;BME280;55193;52.102;5.242;2022-10-28T03:20:22;101615.0;;;16.09;100.0
61628;BME280;55193;52.102;5.242;2022-10-28T03:21:59;101613.0;;;16.09;100.0
61628;BME280;55193;52.102;5.242;2022-10-28T03:23:35;101614.0;;;16.18;100.0
61628;BME280;55193;52.102;5.242;2022-10-28T03:26:47;101608.0;;;16.2;100.0
61628;BME280;55193;52.102;5.242;2022-10-28T03:28:23;101610.0;;;16.18;100.0
61628;BME280;55193;52.102;5.242;2022-10-28T03:29:59;101603.0;;;16.27;100.0
61628;BME280;55193;52.102;5.242;2022-10-28T03:33:13;101603.0;;;16.25;100.0
61628;BME280;55193;52.102;5.242;2022-10-28T03:34:49;101599.0;;;16.25;100.0
61628;BME280;55193;52.102;5.242;2022-10-28T03:36:25;101600.0;;;16.22;100.0
61628;BME280;55193;52.102;5.242;2022-10-28T03:39:37;101603.0;;;16.22;100.0
61628;BME280;55193;52.102;5.242;2022-10-28T03:41:13;101593.0;;;16.22;100.0
61628;BME280;55193;52.102;5.242;2022-10-28T03:42:49;101594.0;;;16.16;100.0
61628;BME280;55193;52.102;5.242;2022-10-28T03:46:02;101588.0;;;16.2;100.0
61628;BME280;55193;52.102;5.242;2022-10-28T03:47:38;101585.0;;;16.27;100.0
61628;BME280;55193;52.102;5.242;2022-10-28T03:49:15;101583.0;;;16.25;100.0
61628;BME280;55193;52.102;5.242;2022-10-28T03:50:51;101580.0;;;16.27;100.0
61628;BME280;55193;52.102;5.242;2022-10-28T03:54:04;101577.0;;;16.18;100.0
61628;BME280;55193;52.102;5.242;2022-10-28T03:55:40;101569.0;;;16.29;100.0
61628;BME280;55193;52.102;5.242;2022-10-28T03:57:17;101573.0;;;16.2;100.0
61628;BME280;55193;52.102;5.242;2022-10-28T04:00:29;101576.0;;;16.12;100.0
61628;BME280;55193;52.102;5.242;2022-10-28T04:02:05;101582.0;;;16.09;100.0
61628;BME280;55193;52.102;5.242;2022-10-28T04:03:41;101581.0;;;16.07;100.0
61628;BME280;55193;52.102;5.242;2022-10-28T04:06:54;101580.0;;;15.97;100.0
61628;BME280;55193;52.102;5.242;2022-10-28T04:08:31;101575.0;;;15.96;100.0
61628;BME280;55193;52.102;5.242;2022-10-28T04:10:09;101574.0;;;15.95;100.0
61628;BME280;55193;52.102;5.242;2022-10-28T04:11:46;101580.0;;;15.93;100.0
61628;BME280;55193;52.102;5.242;2022-10-28T04:14:58;101580.0;;;16.02;100.0
61628;BME280;55193;52.102;5.242;2022-10-28T04:16:34;101577.0;;;16.0;100.0
61628;BME280;55193;52.102;5.242;2022-10-28T04:18:11;101583.0;;;15.93;100.0
61628;BME280;55193;52.102;5.242;2022-10-28T04:21:24;101580.0;;;15.95;100.0
61628;BME280;55193;52.102;5.242;2022-10-28T04:23:00;101584.0;;;15.99;100.0
61628;BME280;55193;52.102;5.242;2022-10-28T04:24:36;101588.0;;;15.94;100.0
61628;BME280;55193;52.102;5.242;2022-10-28T04:27:50;101586.0;;;15.94;100.0
61628;BME280;55193;52.102;5.242;2022-10-28T04:29:25;101594.0;;;15.98;100.0
61628;BME280;55193;52.102;5.242;2022-10-28T04:31:02;101582.0;;;16.02;100.0
61628;BME280;55193;52.102;5.242;2022-10-28T04:32:38;101586.0;;;16.03;100.0
61628;BME280;55193;52.102;5.242;2022-10-28T04:35:52;101586.0;;;16.02;100.0
61628;BME280;55193;52.102;5.242;2022-10-28T04:37:28;101580.0;;;16.06;100.0
61628;BME280;55193;52.102;5.242;2022-10-28T04:39:04;101586.0;;;16.09;100.0
61628;BME280;55193;52.102;5.242;2022-10-28T04:42:16;101580.0;;;16.02;100.0
61628;BME280;55193;52.102;5.242;2022-10-28T04:43:55;101586.0;;;16.09;100.0
61628;BME280;55193;52.102;5.242;2022-10-28T04:45:31;101580.0;;;16.02;100.0
61628;BME280;55193;52.102;5.242;2022-10-28T04:48:45;101575.0;;;16.02;100.0
61628;BME280;55193;52.102;5.242;2022-10-28T04:50:21;101580.0;;;16.02;100.0
61628;BME280;55193;52.102;5.242;2022-10-28T04:51:57;101572.0;;;16.04;100.0
61628;BME280;55193;52.102;5.242;2022-10-28T04:53:33;101572.0;;;16.09;100.0
61628;BME280;55193;52.102;5.242;2022-10-28T04:56:46;101577.0;;;16.09;100.0
61628;BME280;55193;52.102;5.242;2022-10-28T04:58:22;101575.0;;;16.11;100.0
61628;BME280;55193;52.102;5.242;2022-10-28T04:59:59;101567.0;;;16.18;100.0
61628;BME280;55193;52.102;5.242;2022-10-28T05:03:11;101566.0;;;16.2;100.0
61628;BME280;55193;52.102;5.242;2022-10-28T05:04:47;101566.0;;;16.14;100.0
61628;BME280;55193;52.102;5.242;2022-10-28T05:06:24;101568.0;;;16.16;100.0
61628;BME280;55193;52.102;5.242;2022-10-28T05:09:37;101572.0;;;16.16;100.0
61628;BME280;55193;52.102;5.242;2022-10-28T05:11:13;101570.0;;;16.09;100.0
61628;BME280;55193;52.102;5.242;2022-10-28T05:12:49;101566.0;;;16.09;100.0
61628;BME280;55193;52.102;5.242;2022-10-28T05:16:01;101564.0;;;16.11;100.0
61628;BME280;55193;52.102;5.242;2022-10-28T05:17:38;101561.0;;;16.0;100.0
61628;BME280;55193;52.102;5.242;2022-10-28T05:19:15;101561.0;;;15.98;100.0
61628;BME280;55193;52.102;5.242;2022-10-28T05:20:53;101568.0;;;15.9;100.0
61628;BME280;55193;52.102;5.242;2022-10-28T05:24:06;101570.0;;;15.9;100.0
61628;BME280;55193;52.102;5.242;2022-10-28T05:25:42;101568.0;;;15.93;100.0
61628;BME280;55193;52.102;5.242;2022-10-28T05:27:18;101568.0;;;15.87;100.0
61628;BME280;55193;52.102;5.242;2022-10-28T05:30:33;101563.0;;;15.9;100.0
61628;BME280;55193;52.102;5.242;2022-10-28T05:32:09;101556.0;;;15.91;100.0
61628;BME280;55193;52.102;5.242;2022-10-28T05:33:45;101558.0;;;15.89;100.0
61628;BME280;55193;52.102;5.242;2022-10-28T05:35:21;101558.0;;;15.89;100.0
61628;BME280;55193;52.102;5.242;2022-10-28T05:38:33;101555.0;;;15.81;100.0
61628;BME280;55193;52.102;5.242;2022-10-28T05:40:10;101553.0;;;15.79;100.0
61628;BME280;55193;52.102;5.242;2022-10-28T05:41:47;101552.0;;;15.76;100.0
61628;BME280;55193;52.102;5.242;2022-10-28T05:44:58;101556.0;;;15.74;100.0
61628;BME280;55193;52.102;5.242;2022-10-28T05:46:34;101555.0;;;15.62;100.0
61628;BME280;55193;52.102;5.242;2022-10-28T05:48:10;101551.0;;;15.62;100.0
61628;BME280;55193;52.102;5.242;2022-10-28T05:51:23;101543.0;;;15.56;100.0
61628;BME280;55193;52.102;5.242;2022-10-28T05:52:59;101551.0;;;15.62;100.0
61628;BME280;55193;52.102;5.242;2022-10-28T05:54:35;101555.0;;;15.56;100.0
61628;BME280;55193;52.102;5.242;2022-10-28T05:57:48;101555.0;;;15.65;100.0
61628;BME280;55193;52.102;5.242;2022-10-28T05:59:25;101552.0;;;15.58;100.0
61628;BME280;55193;52.102;5.242;2022-10-28T06:01:05;101558.0;;;15.5;100.0
61628;BME280;55193;52.102;5.242;2022-10-28T06:02:41;101559.0;;;15.49;100.0
61628;BME280;55193;52.102;5.242;2022-10-28T06:05:56;101555.0;;;15.53;100.0
61628;BME280;55193;52.102;5.242;2022-10-28T06:07:34;101550.0;;;15.57;100.0
61628;BME280;55193;52.102;5.242;2022-10-28T06:09:10;101562.0;;;15.43;100.0
61628;BME280;55193;52.102;5.242;2022-10-28T06:12:26;101558.0;;;15.42;100.0
61628;BME280;55193;52.102;5.242;2022-10-28T06:14:03;101563.0;;;15.41;100.0
61628;BME280;55193;52.102;5.242;2022-10-28T06:15:39;101557.0;;;15.49;100.0
61628;BME280;55193;52.102;5.242;2022-10-28T06:17:15;101560.0;;;15.31;100.0
61628;BME280;55193;52.102;5.242;2022-10-28T06:20:27;101561.0;;;15.3;100.0
61628;BME280;55193;52.102;5.242;2022-10-28T06:22:03;101562.0;;;15.2;100.0
61628;BME280;55193;52.102;5.242;2022-10-28T06:23:40;101559.0;;;15.26;100.0
61628;BME280;55193;52.102;5.242;2022-10-28T06:26:56;101560.0;;;15.13;100.0
61628;BME280;55193;52.102;5.242;2022-10-28T06:28:32;101560.0;;;15.15;100.0
61628;BME280;55193;52.102;5.242;2022-10-28T06:30:09;101567.0;;;15.17;100.0
61628;BME280;55193;52.102;5.242;2022-10-28T06:33:21;101573.0;;;15.15;100.0
61628;BME280;55193;52.102;5.242;2022-10-28T06:34:57;101569.0;;;15.09;100.0
61628;BME280;55193;52.102;5.242;2022-10-28T06:36:33;101565.0;;;15.07;100.0
61628;BME280;55193;52.102;5.242;2022-10-28T06:38:10;101560.0;;;14.92;100.0
61628;BME280;55193;52.102;5.242;2022-10-28T06:41:28;101563.0;;;14.99;100.0
61628;BME280;55193;52.102;5.242;2022-10-28T06:43:05;101570.0;;;15.05;100.0
61628;BME280;55193;52.102;5.242;2022-10-28T06:44:42;101576.0;;;15.03;100.0
61628;BME280;55193;52.102;5.242;2022-10-28T06:47:56;101574.0;;;15.08;100.0
61628;BME280;55193;52.102;5.242;2022-10-28T06:49:33;101580.0;;;15.02;100.0
61628;BME280;55193;52.102;5.242;2022-10-28T06:51:09;101580.0;;;14.98;100.0
61628;BME280;55193;52.102;5.242;2022-10-28T06:54:21;101578.0;;;15.01;100.0
61628;BME280;55193;52.102;5.242;2022-10-28T06:55:57;101571.0;;;15.06;100.0
61628;BME280;55193;52.102;5.242;2022-10-28T06:57:33;101570.0;;;15.12;100.0
61628;BME280;55193;52.102;5.242;2022-10-28T06:59:10;101570.0;;;15.11;100.0
61628;BME280;55193;52.102;5.242;2022-10-28T07:02:23;101576.0;;;15.14;100.0
61628;BME280;55193;52.102;5.242;2022-10-28T07:03:59;101580.0;;;15.24;100.0
61628;BME280;55193;52.102;5.242;2022-10-28T07:05:35;101575.0;;;15.22;100.0
61628;BME280;55193;52.102;5.242;2022-10-28T07:08:47;101571.0;;;15.26;100.0
61628;BME280;55193;52.102;5.242;2022-10-28T07:10:24;101571.0;;;15.38;100.0
61628;BME280;55193;52.102;5.242;2022-10-28T07:12:00;101574.0;;;15.37;100.0
61628;BME280;55193;52.102;5.242;2022-10-28T07:15:12;101574.0;;;15.47;100.0
61628;BME280;55193;52.102;5.242;2022-10-28T07:16:48;101573.0;;;15.54;100.0
61628;BME280;55193;52.102;5.242;2022-10-28T07:18:25;101573.0;;;15.62;100.0
61628;BME280;55193;52.102;5.242;2022-10-28T07:20:04;101571.0;;;15.66;100.0
61628;BME280;55193;52.102;5.242;2022-10-28T07:23:17;101580.0;;;15.69;100.0
61628;BME280;55193;52.102;5.242;2022-10-28T07:24:54;101580.0;;;15.77;100.0
61628;BME280;55193;52.102;5.242;2022-10-28T07:26:30;101582.0;;;15.78;100.0
61628;BME280;55193;52.102;5.242;2022-10-28T07:29:43;101584.0;;;15.89;100.0
61628;BME280;55193;52.102;5.242;2022-10-28T07:31:20;101583.0;;;15.93;100.0
61628;BME280;55193;52.102;5.242;2022-10-28T07:32:57;101589.0;;;15.93;100.0
61628;BME280;55193;52.102;5.242;2022-10-28T07:36:10;101589.0;;;16.0;100.0
61628;BME280;55193;52.102;5.242;2022-10-28T07:37:48;101585.0;;;16.0;100.0
61628;BME280;55193;52.102;5.242;2022-10-28T07:39:24;101586.0;;;16.14;100.0
61628;BME280;55193;52.102;5.242;2022-10-28T07:41:03;101586.0;;;16.23;100.0
61628;BME280;55193;52.102;5.242;2022-10-28T07:44:16;101591.0;;;16.31;100.0
61628;BME280;55193;52.102;5.242;2022-10-28T07:45:54;101600.0;;;16.43;99.98
61628;BME280;55193;52.102;5.242;2022-10-28T07:47:31;101597.0;;;16.48;99.89
61628;BME280;55193;52.102;5.242;2022-10-28T07:50:44;101600.0;;;16.64;99.22
61628;BME280;55193;52.102;5.242;2022-10-28T07:52:20;101603.0;;;16.75;98.53
61628;BME280;55193;52.102;5.242;2022-10-28T07:53:58;101610.0;;;16.86;98.15
61628;BME280;55193;52.102;5.242;2022-10-28T07:55:34;101610.0;;;16.95;97.29
61628;BME280;55193;52.102;5.242;2022-10-28T07:58:47;101609.0;;;17.02;97.01
61628;BME280;55193;52.102;5.242;2022-10-28T08:00:24;101609.0;;;17.12;96.28
61628;BME280;55193;52.102;5.242;2022-10-28T08:02:00;101599.0;;;17.16;95.9
61628;BME280;55193;52.102;5.242;2022-10-28T08:05:12;101596.0;;;17.22;95.26
61628;BME280;55193;52.102;5.242;2022-10-28T08:06:48;101593.0;;;17.25;95.21
61628;BME280;55193;52.102;5.242;2022-10-28T08:08:24;101603.0;;;17.32;94.99
61628;BME280;55193;52.102;5.242;2022-10-28T08:11:37;101598.0;;;17.34;94.78
61628;BME280;55193;52.102;5.242;2022-10-28T08:13:13;101601.0;;;17.34;94.86
61628;BME280;55193;52.102;5.242;2022-10-28T08:14:49;101599.0;;;17.41;94.56
61628;BME280;55193;52.102;5.242;2022-10-28T08:18:04;101598.0;;;17.45;94.74
61628;BME280;55193;52.102;5.242;2022-10-28T08:19:41;101596.0;;;17.48;94.72
61628;BME280;55193;52.102;5.242;2022-10-28T08:21:17;101602.0;;;17.57;95.19
61628;BME280;55193;52.102;5.242;2022-10-28T08:22:53;101605.0;;;17.66;95.29
61628;BME280;55193;52.102;5.242;2022-10-28T08:26:06;101600.0;;;17.86;94.68
61628;BME280;55193;52.102;5.242;2022-10-28T08:27:43;101609.0;;;17.96;93.86
61628;BME280;55193;52.102;5.242;2022-10-28T08:29:19;101612.0;;;18.09;92.86
61628;BME280;55193;52.102;5.242;2022-10-28T08:32:35;101614.0;;;18.21;92.55
61628;BME280;55193;52.102;5.242;2022-10-28T08:34:11;101614.0;;;18.36;91.53
61628;BME280;55193;52.102;5.242;2022-10-28T08:35:49;101613.0;;;18.43;91.53
61628;BME280;55193;52.102;5.242;2022-10-28T08:37:25;101608.0;;;18.52;90.59
61628;BME280;55193;52.102;5.242;2022-10-28T08:40:56;101600.0;;;18.56;89.83
61628;BME280;55193;52.102;5.242;2022-10-28T08:42:37;101601.0;;;18.54;89.36
61628;BME280;55193;52.102;5.242;2022-10-28T08:44:57;101606.0;;;18.53;89.58
61628;BME280;55193;52.102;5.242;2022-10-28T08:46:58;101612.0;;;18.5;90.19
61628;BME280;55193;52.102;5.242;2022-10-28T08:48:42;101608.0;;;18.5;89.81
61628;BME280;55193;52.102;5.242;2022-10-28T08:50:20;101594.0;;;18.59;89.42
61628;BME280;55193;52.102;5.242;2022-10-28T08:53:41;101602.0;;;18.62;89.56
61628;BME280;55193;52.102;5.242;2022-10-28T08:55:23;101602.0;;;18.59;90.55
61628;BME280;55193;52.102;5.242;2022-10-28T08:57:05;101600.0;;;18.59;90.68
61628;BME280;55193;52.102;5.242;2022-10-28T08:58:55;101600.0;;;18.62;90.19
61628;BME280;55193;52.102;5.242;2022-10-28T09:00:35;101603.0;;;18.68;90.62
61628;BME280;55193;52.102;5.242;2022-10-28T09:03:56;101600.0;;;18.79;89.93
61628;BME280;55193;52.102;5.242;2022-10-28T09:05:38;101600.0;;;18.91;89.31
61628;BME280;55193;52.102;5.242;2022-10-28T09:07:16;101601.0;;;18.95;89.05
61628;BME280;55193;52.102;5.242;2022-10-28T09:08:58;101597.0;;;18.97;88.54
61628;BME280;55193;52.102;5.242;2022-10-28T09:12:43;101599.0;;;18.98;88.49
61628;BME280;55193;52.102;5.242;2022-10-28T09:14:35;101598.0;;;19.02;88.55
61628;BME280;55193;52.102;5.242;2022-10-28T09:16:25;101603.0;;;19.03;88.54
61628;BME280;55193;52.102;5.242;2022-10-28T09:18:17;101601.0;;;19.04;88.53
61628;BME280;55193;52.102;5.242;2022-10-28T09:19:59;101599.0;;;19.13;88.53
61628;BME280;55193;52.102;5.242;2022-10-28T09:21:45;101605.0;;;19.27;88.19
61628;BME280;55193;52.102;5.242;2022-10-28T09:23:47;101598.0;;;19.29;87.63
61628;BME280;55193;52.102;5.242;2022-10-28T09:27:21;101596.0;;;19.34;87.63
61628;BME280;55193;52.102;5.242;2022-10-28T09:29:19;101593.0;;;19.34;87.22
61628;BME280;55193;52.102;5.242;2022-10-28T09:31:15;101596.0;;;19.34;87.12
61628;BME280;55193;52.102;5.242;2022-10-28T09:33:04;101594.0;;;19.34;87.68
61628;BME280;55193;52.102;5.242;2022-10-28T09:34:47;101605.0;;;19.34;87.85
61628;BME280;55193;52.102;5.242;2022-10-28T09:36:31;101605.0;;;19.34;87.51
61628;BME280;55193;52.102;5.242;2022-10-28T09:38:15;101602.0;;;19.36;87.52
61628;BME280;55193;52.102;5.242;2022-10-28T09:41:49;101602.0;;;19.39;87.51
61628;BME280;55193;52.102;5.242;2022-10-28T09:43:28;101603.0;;;19.38;87.85
61628;BME280;55193;52.102;5.242;2022-10-28T09:45:12;101606.0;;;19.5;87.69
61628;BME280;55193;52.102;5.242;2022-10-28T09:46:54;101605.0;;;19.48;87.81
61628;BME280;55193;52.102;5.242;2022-10-28T09:48:35;101605.0;;;19.57;87.17
61628;BME280;55193;52.102;5.242;2022-10-28T09:51:58;101598.0;;;19.66;86.91
61628;BME280;55193;52.102;5.242;2022-10-28T09:53:41;101596.0;;;19.79;86.79
61628;BME280;55193;52.102;5.242;2022-10-28T09:55:23;101601.0;;;19.91;86.35
61628;BME280;55193;52.102;5.242;2022-10-28T09:56:59;101602.0;;;19.96;86.08
61628;BME280;55193;52.102;5.242;2022-10-28T10:00:19;101595.0;;;20.11;85.74
61628;BME280;55193;52.102;5.242;2022-10-28T10:01:56;101600.0;;;20.18;85.15
61628;BME280;55193;52.102;5.242;2022-10-28T10:03:32;101607.0;;;20.27;84.62
61628;BME280;55193;52.102;5.242;2022-10-28T10:06:51;101606.0;;;20.27;83.95
61628;BME280;55193;52.102;5.242;2022-10-28T10:08:30;101605.0;;;20.31;83.35
61628;BME280;55193;52.102;5.242;2022-10-28T10:10:12;101597.0;;;20.38;83.57
61628;BME280;55193;52.102;5.242;2022-10-28T10:11:52;101597.0;;;20.48;83.53
61628;BME280;55193;52.102;5.242;2022-10-28T10:15:17;101598.0;;;20.55;82.67
61628;BME280;55193;52.102;5.242;2022-10-28T10:17:05;101597.0;;;20.77;82.72
61628;BME280;55193;52.102;5.242;2022-10-28T10:18:50;101587.0;;;20.9;82.64
61628;BME280;55193;52.102;5.242;2022-10-28T10:20:46;101583.0;;;20.87;81.91
61628;BME280;55193;52.102;5.242;2022-10-28T10:22:28;101584.0;;;20.92;81.69
61628;BME280;55193;52.102;5.242;2022-10-28T10:24:20;101587.0;;;20.86;81.55
61628;BME280;55193;52.102;5.242;2022-10-28T10:27:38;101585.0;;;20.94;81.27
61628;BME280;55193;52.102;5.242;2022-10-28T10:29:14;101580.0;;;20.93;81.56
61628;BME280;55193;52.102;5.242;2022-10-28T10:30:52;101578.0;;;21.06;82.25
61628;BME280;55193;52.102;5.242;2022-10-28T10:32:30;101587.0;;;21.14;81.49
61628;BME280;55193;52.102;5.242;2022-10-28T10:36:02;101588.0;;;21.19;81.08
61628;BME280;55193;52.102;5.242;2022-10-28T10:37:42;101586.0;;;21.33;80.67
61628;BME280;55193;52.102;5.242;2022-10-28T10:39:21;101582.0;;;21.39;81.14
61628;BME280;55193;52.102;5.242;2022-10-28T10:41:00;101575.0;;;21.39;80.02
61628;BME280;55193;52.102;5.242;2022-10-28T10:44:31;101574.0;;;21.4;79.83
61628;BME280;55193;52.102;5.242;2022-10-28T10:46:13;101569.0;;;21.42;80.33
61628;BME280;55193;52.102;5.242;2022-10-28T10:48:10;101571.0;;;21.46;80.08
61628;BME280;55193;52.102;5.242;2022-10-28T10:49:48;101580.0;;;21.49;80.09
61628;BME280;55193;52.102;5.242;2022-10-28T10:51:26;101587.0;;;21.55;80.16
61628;BME280;55193;52.102;5.242;2022-10-28T10:54:46;101587.0;;;21.58;79.11
61628;BME280;55193;52.102;5.242;2022-10-28T10:56:31;101586.0;;;21.6;79.3
61628;BME280;55193;52.102;5.242;2022-10-28T10:58:15;101588.0;;;21.62;78.8
61628;BME280;55193;52.102;5.242;2022-10-28T10:59:56;101583.0;;;21.64;79.25
61628;BME280;55193;52.102;5.242;2022-10-28T11:03:16;101583.0;;;21.67;79.34
61628;BME280;55193;52.102;5.242;2022-10-28T11:05:00;101581.0;;;21.65;78.06
61628;BME280;55193;52.102;5.242;2022-10-28T11:06:40;101580.0;;;21.67;78.22
61628;BME280;55193;52.102;5.242;2022-10-28T11:08:29;101583.0;;;21.68;78.45